createdAt,value
2019-01-27T00:01:43.862Z,1.80
2019-01-27T00:04:18.874Z,1.80
2019-01-27T00:06:50.774Z,1.60
2019-01-27T00:11:53.313Z,1.60
2019-01-27T00:14:25.018Z,1.62
2019-01-27T00:16:56.722Z,1.90
2019-01-27T00:21:59.322Z,1.70
2019-01-27T00:24:31.360Z,1.70
2019-01-27T00:27:03.045Z,1.75
2019-01-27T00:29:35.317Z,1.65
2019-01-27T00:32:06.869Z,1.75
2019-01-27T00:34:38.398Z,1.67
2019-01-27T00:37:10.062Z,1.72
2019-01-27T00:39:41.774Z,1.80
2019-01-27T00:47:28.758Z,1.90
2019-01-27T00:52:43.305Z,1.77
2019-01-27T00:55:19.414Z,1.82
2019-01-27T00:57:51.306Z,1.62
2019-01-27T01:00:26.306Z,1.60
2019-01-27T01:02:57.857Z,1.50
2019-01-27T01:05:29.589Z,1.62
2019-01-27T01:08:01.308Z,1.60
2019-01-27T01:10:32.820Z,1.82
2019-01-27T01:13:04.596Z,1.98
2019-01-27T01:15:36.356Z,1.80
2019-01-27T01:18:08.318Z,1.57
2019-01-27T01:20:39.843Z,1.50
2019-01-27T01:23:11.590Z,1.72
2019-01-27T01:25:43.368Z,1.40
2019-01-27T01:28:15.073Z,1.62
2019-01-27T01:30:46.869Z,1.60
2019-01-27T01:33:18.633Z,1.60
2019-01-27T01:35:50.377Z,1.70
2019-01-27T01:38:22.302Z,1.42
2019-01-27T01:40:53.871Z,1.60
2019-01-27T01:43:25.636Z,1.65
2019-01-27T01:45:57.317Z,1.47
2019-01-27T01:48:32.556Z,1.82
2019-01-27T01:51:07.064Z,1.60
2019-01-27T01:53:42.859Z,1.62
2019-01-27T01:56:14.458Z,1.57
2019-01-27T01:58:46.306Z,1.60
2019-01-27T02:01:20.417Z,1.50
2019-01-27T02:03:52.304Z,1.80
2019-01-27T02:06:24.019Z,1.65
2019-01-27T02:08:55.797Z,1.90
2019-01-27T02:11:27.426Z,1.40
2019-01-27T02:13:59.038Z,1.60
2019-01-27T02:16:30.787Z,1.60
2019-01-27T02:21:33.304Z,1.70
2019-01-27T02:24:05.305Z,1.50
2019-01-27T02:26:36.869Z,1.40
2019-01-27T02:29:08.632Z,1.52
2019-01-27T02:31:40.376Z,1.25
2019-01-27T02:34:20.399Z,1.62
2019-01-27T02:36:52.074Z,1.40
2019-01-27T02:39:23.801Z,1.32
2019-01-27T02:41:55.411Z,1.40
2019-01-27T02:44:27.068Z,1.20
2019-01-27T02:46:58.781Z,1.50
2019-01-27T02:52:01.321Z,1.40
2019-01-27T02:54:32.908Z,1.40
2019-01-27T02:57:04.768Z,1.62
2019-01-27T03:02:07.395Z,1.40
2019-01-27T03:04:39.051Z,1.60
2019-01-27T03:07:35.321Z,1.37
2019-01-27T03:10:11.795Z,1.47
2019-01-27T03:15:15.035Z,1.50
2019-01-27T03:17:46.775Z,1.40
2019-01-27T03:20:18.394Z,1.33
2019-01-27T03:22:50.282Z,1.40
2019-01-27T03:25:21.825Z,1.60
2019-01-27T03:27:53.475Z,1.52
2019-01-27T03:30:25.329Z,1.42
2019-01-27T03:32:56.896Z,1.32
2019-01-27T03:35:28.777Z,1.47
2019-01-27T03:40:31.320Z,1.32
2019-01-27T03:43:02.874Z,1.30
2019-01-27T03:45:34.759Z,1.37
2019-01-27T03:48:06.609Z,1.40
2019-01-27T03:50:38.348Z,1.40
2019-01-27T03:53:10.354Z,1.30
2019-01-27T03:55:42.069Z,1.50
2019-01-27T03:58:13.761Z,1.30
2019-01-27T04:03:16.322Z,1.37
2019-01-27T04:05:47.861Z,1.30
2019-01-27T04:08:19.762Z,1.07
2019-01-27T04:13:22.307Z,1.30
2019-01-27T04:15:54.304Z,1.20
2019-01-27T04:18:25.907Z,1.30
2019-01-27T04:20:57.424Z,1.30
2019-01-27T04:23:29.081Z,1.32
2019-01-27T04:26:00.796Z,1.30
2019-01-27T04:31:03.766Z,1.20
2019-01-27T04:36:06.607Z,1.32
2019-01-27T04:38:37.665Z,1.27
2019-01-27T04:41:09.391Z,1.37
2019-01-27T04:43:41.078Z,1.10
2019-01-27T04:46:12.793Z,1.00
2019-01-27T04:51:15.325Z,1.20
2019-01-27T04:53:46.861Z,1.20
2019-01-27T04:56:18.622Z,1.30
2019-01-27T04:58:50.370Z,1.20
2019-01-27T05:01:22.051Z,1.20
2019-01-27T05:03:58.365Z,1.35
2019-01-27T05:06:30.320Z,1.27
2019-01-27T05:09:01.897Z,1.52
2019-01-27T05:11:33.408Z,1.27
2019-01-27T05:14:05.011Z,1.00
2019-01-27T05:16:36.774Z,1.10
2019-01-27T05:21:39.313Z,1.05
2019-01-27T05:24:11.330Z,1.40
2019-01-27T05:26:42.838Z,1.15
2019-01-27T05:29:14.612Z,1.10
2019-01-27T05:31:46.325Z,1.07
2019-01-27T05:34:17.910Z,1.30
2019-01-27T05:36:49.429Z,1.00
2019-01-27T05:39:21.319Z,1.20
2019-01-27T05:41:52.843Z,1.20
2019-01-27T05:44:24.584Z,1.00
2019-01-27T05:46:57.077Z,1.10
2019-01-27T05:49:28.781Z,1.10
2019-01-27T05:54:31.305Z,1.05
2019-01-27T05:57:02.861Z,1.10
2019-01-27T05:59:34.426Z,1.10
2019-01-27T06:02:06.318Z,1.10
2019-01-27T06:04:37.862Z,1.27
2019-01-27T06:07:09.638Z,1.40
2019-01-27T06:09:41.389Z,1.10
2019-01-27T06:12:13.308Z,1.17
2019-01-27T06:14:44.829Z,1.27
2019-01-27T06:17:16.614Z,1.10
2019-01-27T06:19:48.310Z,0.93
2019-01-27T06:22:20.046Z,1.00
2019-01-27T06:24:51.837Z,1.15
2019-01-27T06:27:23.630Z,1.27
2019-01-27T06:29:55.360Z,0.93
2019-01-27T06:32:44.950Z,1.10
2019-01-27T06:35:16.792Z,0.90
2019-01-27T06:37:48.779Z,1.22
2019-01-27T06:42:51.372Z,1.10
2019-01-27T06:45:23.314Z,1.10
2019-01-27T06:47:54.844Z,0.90
2019-01-27T06:50:26.614Z,1.00
2019-01-27T06:52:58.392Z,1.30
2019-01-27T06:55:30.038Z,1.20
2019-01-27T06:58:01.786Z,1.22
2019-01-27T07:03:21.310Z,1.30
2019-01-27T07:06:00.317Z,1.07
2019-01-27T07:08:56.320Z,1.12
2019-01-27T07:11:55.496Z,1.22
2019-01-27T07:14:44.409Z,1.27
2019-01-27T07:17:30.312Z,1.40
2019-01-27T07:20:24.397Z,1.22
2019-01-27T07:23:43.916Z,1.30
2019-01-27T07:26:22.317Z,1.20
2019-01-27T07:28:59.850Z,1.32
2019-01-27T07:31:49.510Z,1.10
2019-01-27T07:34:47.315Z,1.35
2019-01-27T07:38:00.513Z,1.20
2019-01-27T07:40:47.984Z,1.40
2019-01-27T07:43:50.697Z,1.37
2019-01-27T07:49:36.311Z,1.50
2019-01-27T07:52:29.578Z,1.22
2019-01-27T07:55:20.587Z,1.05
2019-01-27T07:58:11.145Z,1.20
2019-01-27T08:00:50.445Z,0.93
2019-01-27T08:03:41.619Z,1.20
2019-01-27T08:06:25.847Z,1.12
2019-01-27T08:09:28.315Z,1.30
2019-01-27T08:12:23.794Z,1.35
2019-01-27T08:15:27.331Z,1.05
2019-01-27T08:18:20.653Z,0.98
2019-01-27T08:21:20.595Z,1.10
2019-01-27T08:24:17.728Z,1.40
2019-01-27T08:30:19.249Z,1.00
2019-01-27T08:33:16.410Z,0.90
2019-01-27T08:36:06.442Z,0.80
2019-01-27T08:38:56.324Z,0.98
2019-01-27T08:41:47.468Z,1.00
2019-01-27T08:44:35.608Z,0.80
2019-01-27T08:47:08.324Z,1.15
2019-01-27T08:49:40.328Z,1.00
2019-01-27T08:52:12.449Z,1.00
2019-01-27T08:54:44.510Z,0.90
2019-01-27T08:57:16.830Z,1.00
2019-01-27T08:59:48.828Z,0.80
2019-01-27T09:02:40.313Z,0.80
2019-01-27T09:05:32.419Z,0.98
2019-01-27T09:08:13.349Z,1.00
2019-01-27T09:11:10.335Z,1.20
2019-01-27T09:13:57.454Z,1.20
2019-01-27T09:16:47.325Z,1.30
2019-01-27T09:19:41.318Z,1.25
2019-01-27T09:22:26.350Z,0.93
2019-01-27T09:25:06.064Z,1.00
2019-01-27T09:27:56.771Z,1.25
2019-01-27T09:30:53.764Z,1.20
2019-01-27T09:33:43.316Z,1.10
2019-01-27T09:36:36.816Z,1.30
2019-01-27T09:39:42.309Z,1.10
2019-01-27T09:42:51.404Z,1.37
2019-01-27T09:45:57.819Z,1.50
2019-01-27T09:48:37.829Z,1.50
2019-01-27T09:51:31.389Z,2.00
2019-01-27T09:54:08.956Z,1.70
2019-01-27T09:57:00.118Z,1.90
2019-01-27T09:59:53.499Z,1.62
2019-01-27T10:02:34.944Z,1.87
2019-01-27T10:05:37.880Z,2.00
2019-01-27T10:08:37.327Z,1.60
2019-01-27T10:11:31.322Z,2.00
2019-01-27T10:14:15.318Z,2.00
2019-01-27T10:16:59.803Z,1.90
2019-01-27T10:20:01.399Z,2.27
2019-01-27T10:22:43.852Z,2.83
2019-01-27T10:25:26.443Z,2.40
2019-01-27T10:28:07.863Z,2.83
2019-01-27T10:30:57.756Z,2.77
2019-01-27T10:36:35.614Z,3.17
2019-01-27T10:39:29.622Z,3.33
2019-01-27T10:42:09.381Z,3.35
2019-01-27T10:45:18.652Z,3.02
2019-01-27T10:51:00.335Z,3.40
2019-01-27T10:53:38.335Z,3.90
2019-01-27T10:56:30.823Z,3.70
2019-01-27T10:59:08.318Z,3.87
2019-01-27T11:02:05.306Z,4.25
2019-01-27T11:05:05.060Z,3.80
2019-01-27T11:07:54.482Z,3.50
2019-01-27T11:10:35.613Z,4.00
2019-01-27T11:13:32.048Z,4.03
2019-01-27T11:16:34.459Z,4.28
2019-01-27T11:19:27.726Z,3.80
2019-01-27T11:24:59.829Z,4.17
2019-01-27T11:27:50.748Z,3.85
2019-01-27T11:33:26.825Z,4.22
2019-01-27T11:36:29.650Z,4.67
2019-01-27T11:39:18.292Z,3.90
2019-01-27T11:42:08.607Z,4.30
2019-01-27T11:44:58.476Z,4.33
2019-01-27T11:47:48.774Z,3.95
2019-01-27T11:53:10.985Z,4.37
2019-01-27T11:55:42.841Z,4.28
2019-01-27T11:58:19.019Z,4.20
2019-01-27T12:00:56.658Z,4.20
2019-01-27T12:03:29.382Z,4.10
2019-01-27T12:06:06.093Z,4.40
2019-01-27T12:08:38.069Z,5.00
2019-01-27T12:11:10.893Z,4.33
2019-01-27T12:13:42.855Z,4.67
2019-01-27T12:16:14.844Z,4.25
2019-01-27T12:18:46.866Z,4.47
2019-01-27T12:21:18.798Z,4.40
2019-01-27T12:23:50.836Z,4.33
2019-01-27T12:26:22.809Z,4.20
2019-01-27T12:28:55.342Z,4.62
2019-01-27T12:31:27.791Z,4.65
2019-01-27T12:36:30.810Z,4.40
2019-01-27T12:39:02.795Z,4.65
2019-01-27T12:44:05.599Z,4.20
2019-01-27T12:46:37.366Z,4.00
2019-01-27T12:49:09.808Z,4.20
2019-01-27T12:51:41.714Z,4.08
2019-01-27T12:56:44.507Z,4.30
2019-01-27T12:59:16.500Z,4.03
2019-01-27T13:01:48.771Z,4.08
2019-01-27T13:06:51.038Z,4.00
2019-01-27T13:09:22.810Z,3.72
2019-01-27T13:11:54.823Z,4.03
2019-01-27T13:14:26.383Z,4.15
2019-01-27T13:16:58.317Z,3.85
2019-01-27T13:19:30.117Z,4.30
2019-01-27T13:22:02.376Z,3.85
2019-01-27T13:24:34.307Z,3.22
2019-01-27T13:27:06.307Z,3.42
2019-01-27T13:29:38.006Z,3.42
2019-01-27T13:32:10.341Z,3.92
2019-01-27T13:34:42.861Z,3.33
2019-01-27T13:37:14.421Z,2.42
2019-01-27T13:39:46.267Z,2.90
2019-01-27T13:42:17.816Z,2.95
2019-01-27T13:44:49.545Z,3.37
2019-01-27T13:47:21.762Z,3.10
2019-01-27T13:52:24.312Z,3.60
2019-01-27T13:54:55.872Z,3.62
2019-01-27T13:57:27.421Z,3.00
2019-01-27T13:59:59.064Z,3.60
2019-01-27T14:02:30.869Z,3.02
2019-01-27T14:05:02.999Z,2.58
2019-01-27T14:07:34.799Z,3.05
2019-01-27T14:10:09.392Z,2.95
2019-01-27T14:12:41.403Z,2.37
2019-01-27T14:15:18.751Z,2.47
2019-01-27T14:17:50.370Z,3.00
2019-01-27T14:20:22.777Z,2.55
2019-01-27T14:25:27.805Z,3.45
2019-01-27T14:27:59.642Z,3.30
2019-01-27T14:30:36.305Z,3.30
2019-01-27T14:33:08.835Z,3.30
2019-01-27T14:35:40.873Z,2.62
2019-01-27T14:38:14.089Z,2.92
2019-01-27T14:40:47.223Z,2.92
2019-01-27T14:43:20.113Z,2.75
2019-01-27T14:45:52.663Z,2.45
2019-01-27T14:50:56.089Z,3.02
2019-01-27T14:53:28.510Z,2.77
2019-01-27T14:56:01.892Z,2.70
2019-01-27T14:58:44.861Z,2.70
2019-01-27T15:01:29.446Z,3.30
2019-01-27T15:04:13.859Z,3.12
2019-01-27T15:06:48.301Z,2.90
2019-01-27T15:09:27.928Z,3.27
2019-01-27T15:12:01.706Z,3.15
2019-01-27T15:14:34.749Z,3.50
2019-01-27T15:17:08.423Z,3.42
2019-01-27T15:19:46.432Z,3.12
2019-01-27T15:22:22.163Z,3.35
2019-01-27T15:24:55.462Z,3.40
2019-01-27T15:27:28.815Z,3.50
2019-01-27T15:30:07.520Z,2.62
2019-01-27T15:32:42.548Z,2.70
2019-01-27T15:35:19.357Z,2.40
2019-01-27T15:37:52.503Z,2.60
2019-01-27T15:40:27.440Z,3.20
2019-01-27T15:43:01.549Z,2.60
2019-01-27T15:45:36.507Z,3.27
2019-01-27T15:48:12.251Z,3.45
2019-01-27T15:50:51.711Z,3.00
2019-01-27T15:53:24.382Z,2.85
2019-01-27T15:55:57.037Z,2.52
2019-01-27T15:58:31.022Z,3.02
2019-01-27T16:01:04.363Z,3.30
2019-01-27T16:03:40.519Z,3.10
2019-01-27T16:06:15.448Z,3.17
2019-01-27T16:08:49.470Z,3.05
2019-01-27T16:11:22.227Z,2.83
2019-01-27T16:13:55.177Z,2.72
2019-01-27T16:16:29.648Z,3.20
2019-01-27T16:19:04.567Z,2.80
2019-01-27T16:21:40.561Z,2.52
2019-01-27T16:24:31.696Z,2.52
2019-01-27T16:30:07.166Z,2.30
2019-01-27T16:32:41.903Z,2.50
2019-01-27T16:35:19.932Z,2.40
2019-01-27T16:37:52.370Z,2.50
2019-01-27T16:40:24.650Z,2.50
2019-01-27T16:42:56.822Z,2.83
2019-01-27T16:45:28.814Z,2.40
2019-01-27T16:48:01.022Z,2.30
2019-01-27T16:50:34.017Z,3.02
2019-01-27T16:53:05.997Z,2.52
2019-01-27T16:55:39.334Z,2.35
2019-01-27T16:58:12.130Z,2.47
2019-01-27T17:00:44.435Z,2.45
2019-01-27T17:03:16.981Z,2.30
2019-01-27T17:05:48.917Z,2.65
2019-01-27T17:08:20.989Z,2.22
2019-01-27T17:10:53.330Z,2.95
2019-01-27T17:13:26.325Z,2.70
2019-01-27T17:15:58.924Z,2.58
2019-01-27T17:18:31.574Z,2.80
2019-01-27T17:21:04.444Z,2.17
2019-01-27T17:23:37.138Z,2.27
2019-01-27T17:26:10.126Z,2.30
2019-01-27T17:28:43.124Z,2.10
2019-01-27T17:31:16.422Z,2.52
2019-01-27T17:33:49.077Z,2.33
2019-01-27T17:36:22.378Z,2.40
2019-01-27T17:38:55.508Z,2.22
2019-01-27T17:41:28.306Z,2.30
2019-01-27T17:44:00.446Z,2.27
2019-01-27T17:46:32.938Z,2.30
2019-01-27T17:49:05.419Z,2.40
2019-01-27T17:51:38.143Z,2.30
2019-01-27T17:54:13.016Z,2.10
2019-01-27T17:56:49.735Z,2.40
2019-01-27T18:02:28.652Z,2.22
2019-01-27T18:08:11.910Z,2.08
2019-01-27T18:10:55.462Z,2.35
2019-01-27T18:13:40.131Z,2.12
2019-01-27T18:16:16.108Z,2.40
2019-01-27T18:18:51.356Z,2.10
2019-01-27T18:21:23.854Z,2.47
2019-01-27T18:23:55.885Z,2.62
2019-01-27T18:26:30.052Z,2.45
2019-01-27T18:29:04.884Z,2.67
2019-01-27T18:31:37.385Z,2.37
2019-01-27T18:34:16.352Z,2.62
2019-01-27T18:36:50.449Z,2.58
2019-01-27T18:39:31.320Z,2.40
2019-01-27T18:42:21.921Z,2.62
2019-01-27T18:45:12.241Z,2.85
2019-01-27T18:47:53.217Z,2.75
2019-01-27T18:50:26.487Z,2.58
2019-01-27T18:53:18.122Z,2.77
2019-01-27T18:55:57.865Z,2.45
2019-01-27T18:58:45.433Z,2.58
2019-01-27T19:01:37.181Z,2.45
2019-01-27T19:04:20.024Z,2.30
2019-01-27T19:07:11.603Z,2.37
2019-01-27T19:09:56.372Z,2.33
2019-01-27T19:13:06.518Z,2.50
2019-01-27T19:15:59.519Z,2.65
2019-01-27T19:19:08.693Z,2.12
2019-01-27T19:24:59.659Z,2.20
2019-01-27T19:30:49.381Z,2.20
2019-01-27T19:33:31.567Z,2.30
2019-01-27T19:36:37.604Z,2.40
2019-01-27T19:39:54.385Z,2.20
2019-01-27T19:42:53.752Z,2.02
2019-01-27T19:48:52.318Z,2.40
2019-01-27T19:51:44.707Z,2.65
2019-01-27T19:57:31.553Z,2.52
2019-01-27T20:00:23.466Z,2.52
2019-01-27T20:03:33.475Z,2.25
2019-01-27T20:06:17.054Z,2.40
2019-01-27T20:09:08.413Z,2.33
2019-01-27T20:11:53.525Z,2.45
2019-01-27T20:14:45.985Z,2.50
2019-01-27T20:17:28.744Z,2.33
2019-01-27T20:20:19.050Z,2.17
2019-01-27T20:23:00.939Z,2.10
2019-01-27T20:25:46.883Z,2.20
2019-01-27T20:28:44.442Z,2.22
2019-01-27T20:31:41.409Z,2.10
2019-01-27T20:34:35.479Z,2.05
2019-01-27T20:37:24.582Z,2.20
2019-01-27T20:40:37.667Z,2.10
2019-01-27T20:46:35.366Z,2.50
2019-01-27T20:49:32.387Z,2.10
2019-01-27T20:52:22.853Z,2.15
2019-01-27T20:55:22.784Z,2.02
2019-01-27T21:03:40.539Z,2.22
2019-01-27T21:06:24.690Z,2.35
2019-01-27T21:12:20.580Z,2.08
2019-01-27T21:15:44.057Z,2.10
2019-01-27T21:18:26.623Z,2.25
2019-01-27T21:23:30.319Z,2.15
2019-01-27T21:26:03.170Z,2.20
2019-01-27T21:28:35.876Z,2.30
2019-01-27T21:31:08.092Z,2.00
2019-01-27T21:33:40.933Z,2.20
2019-01-27T21:36:16.379Z,1.90
2019-01-27T21:38:48.070Z,1.98
2019-01-27T21:41:25.646Z,2.10
2019-01-27T21:44:26.110Z,2.20
2019-01-27T21:47:01.132Z,2.20
2019-01-27T21:49:34.038Z,2.02
2019-01-27T21:52:07.246Z,1.92
2019-01-27T21:54:42.060Z,2.05
2019-01-27T21:57:17.453Z,1.80
2019-01-27T21:59:55.449Z,1.90
2019-01-27T22:02:34.019Z,2.08
2019-01-27T22:05:09.984Z,2.17
2019-01-27T22:07:45.369Z,2.15
2019-01-27T22:10:29.905Z,1.82
2019-01-27T22:13:02.877Z,2.27
2019-01-27T22:15:35.385Z,2.35
2019-01-27T22:18:07.941Z,2.08
2019-01-27T22:20:39.911Z,2.17
2019-01-27T22:23:34.900Z,2.17
2019-01-27T22:26:07.373Z,2.00
2019-01-27T22:28:40.359Z,2.17
2019-01-27T22:31:13.109Z,1.80
2019-01-27T22:33:46.008Z,2.17
2019-01-27T22:36:18.503Z,2.10
2019-01-27T22:38:51.055Z,2.02
2019-01-27T22:41:23.950Z,2.00
2019-01-27T22:43:56.486Z,2.40
2019-01-27T22:46:29.017Z,2.05
2019-01-27T22:49:01.097Z,2.00
2019-01-27T22:51:34.390Z,2.10
2019-01-27T22:54:06.877Z,2.02
2019-01-27T22:56:38.845Z,2.00
2019-01-27T22:59:10.839Z,2.05
2019-01-27T23:01:43.788Z,1.75
2019-01-27T23:06:47.419Z,1.70
2019-01-27T23:09:21.369Z,1.70
2019-01-27T23:11:53.446Z,2.00
2019-01-27T23:14:25.851Z,1.87
2019-01-27T23:16:58.329Z,1.77
2019-01-27T23:19:30.842Z,2.00
2019-01-27T23:22:03.318Z,2.17
2019-01-27T23:24:35.569Z,1.90
2019-01-27T23:27:26.402Z,1.80
2019-01-27T23:29:58.067Z,1.87
2019-01-27T23:32:29.785Z,1.82
2019-01-27T23:35:01.789Z,1.83
2019-01-27T23:40:04.306Z,1.70
2019-01-27T23:42:35.826Z,2.05
2019-01-27T23:45:08.628Z,1.95
2019-01-27T23:47:40.778Z,1.55
2019-01-27T23:52:43.390Z,1.77
2019-01-27T23:55:15.323Z,1.62
2019-01-27T23:57:47.061Z,1.62
